METAR Data
IDs: Format: Raw Decoded Include TAF

Data at: 1335 UTC 26 Feb 2021

METAR for:KMYP (Monarch Pass, CO, US)
Text:KMYP 261315Z AUTO 26031G38KT 1/4SM FZFG OVC001 M15/M17 A2987 RMK AO2 TSNO
Temperature:-15.0°C ( 5°F)
Dewpoint:-17.0°C ( 1°F) [RH = 85%]
Pressure (altimeter):29.87 inches Hg (1011.6 mb)
Winds:from the W (260 degrees) at 36 MPH (31 knots; 15.9 m/s) gusting to 44 MPH (38 knots; 19.5 m/s)
Visibility: 0.25 sm ( 0.40 km)
Ceiling:100 feet AGL
Clouds: overcast cloud deck at 100 feet AGL
Weather:FZFG (freezing fog)
QC Flag:automated observation with no human augmentation